Time;durP1;ratioP1;P1;durP2;ratioP2;P2;SDS_P1;SDS_P2;PMS_P1;PMS_P2;Temp;Humidity;BMP_temperature;BMP_pressure;BME280_temperature;BME280_humidity;BME280_pressure;Samples;Min_cycle;Max_cycle;Signal;HPM_P1;HPM_P2
2022/09/23 00:01:02;;;;;;;12.43;9.10;;;4.80;99.90;;;;;;5050693;28;20021;-51
2022/09/23 00:03:30;;;;;;;14.10;9.38;;;4.80;99.90;;;;;;5049444;28;20124;-52
2022/09/23 00:06:19;;;;;;;11.57;10.18;;;4.70;99.90;;;;;;5051563;28;20025;-51
2022/09/23 00:08:51;;;;;;;9.27;8.30;;;4.70;99.90;;;;;;5050273;28;20481;-53
2022/09/23 00:11:26;;;;;;;10.52;7.93;;;4.70;99.90;;;;;;5054026;28;20017;-50
2022/09/23 00:13:54;;;;;;;8.32;7.53;;;4.60;99.90;;;;;;5053848;28;20020;-51
2022/09/23 00:16:25;;;;;;;8.68;7.78;;;4.50;99.90;;;;;;5053965;28;20464;-52
2022/09/23 00:18:50;;;;;;;10.55;9.25;;;4.50;99.90;;;;;;5054034;28;20052;-53
2022/09/23 00:21:18;;;;;;;9.90;8.90;;;4.40;99.90;;;;;;5060832;28;20655;-51
2022/09/23 00:23:44;;;;;;;10.02;8.80;;;4.50;99.90;;;;;;5073970;28;20107;-50
2022/09/23 00:26:12;;;;;;;9.43;8.50;;;4.50;99.90;;;;;;5072103;28;20453;-52
2022/09/23 00:28:39;;;;;;;9.10;8.20;;;4.50;99.90;;;;;;5074028;28;20345;-52
2022/09/23 00:31:14;;;;;;;13.65;8.73;;;4.50;99.90;;;;;;5073861;28;20029;-52
2022/09/23 00:33:40;;;;;;;10.40;9.07;;;4.50;99.90;;;;;;5073480;28;20455;-52
2022/09/23 00:36:09;;;;;;;11.68;9.05;;;4.50;99.90;;;;;;5073470;28;20032;-52
2022/09/23 00:38:36;;;;;;;9.38;8.38;;;4.50;99.90;;;;;;5071899;28;20082;-52
2022/09/23 00:41:02;;;;;;;9.85;8.35;;;4.60;99.90;;;;;;5053839;28;20361;-51
2022/09/23 00:43:50;;;;;;;9.55;8.25;;;4.50;99.90;;;;;;5052516;28;20025;-52
2022/09/23 00:46:23;;;;;;;10.60;9.48;;;4.50;99.90;;;;;;5053555;28;20074;-51
2022/09/23 00:48:55;;;;;;;11.15;9.98;;;4.50;99.90;;;;;;5053490;28;20029;-53
2022/09/23 00:51:26;;;;;;;14.15;10.85;;;4.40;99.90;;;;;;5053466;28;20125;-51
2022/09/23 00:53:52;;;;;;;10.48;9.45;;;4.40;99.90;;;;;;5058646;28;20116;-51
2022/09/23 00:56:20;;;;;;;11.55;10.35;;;4.40;99.90;;;;;;5073468;28;20100;-52
2022/09/23 00:58:48;;;;;;;13.02;10.43;;;4.40;99.90;;;;;;5073305;28;20107;-50
2022/09/23 01:01:14;;;;;;;13.30;10.52;;;4.40;99.90;;;;;;5073306;28;20033;-50
2022/09/23 01:03:42;;;;;;;16.15;9.40;;;4.30;99.90;;;;;;5070991;28;20024;-52
2022/09/23 01:06:08;;;;;;;16.40;10.38;;;4.20;99.90;;;;;;5073252;28;20376;-51
2022/09/23 01:08:34;;;;;;;11.60;10.48;;;4.10;99.90;;;;;;5073116;28;20044;-55
2022/09/23 01:11:29;;;;;;;11.13;9.98;;;4.10;99.90;;;;;;5073211;28;20027;-50
2022/09/23 01:14:44;;;;;;;11.35;9.82;;;4.00;99.90;;;;;;5072404;28;20040;-52
2022/09/23 01:17:55;;;;;;;26.38;9.77;;;4.00;99.90;;;;;;5073230;28;20029;-51
2022/09/23 01:20:54;;;;;;;11.90;8.95;;;4.00;99.90;;;;;;5061459;28;20049;-52
2022/09/23 01:23:26;;;;;;;11.52;10.27;;;4.00;99.90;;;;;;5053010;28;20049;-51
2022/09/23 01:26:29;;;;;;;18.00;9.63;;;3.90;99.90;;;;;;5052875;28;20389;-50
2022/09/23 01:29:16;;;;;;;10.80;8.57;;;3.90;99.90;;;;;;5053769;28;20025;-51
2022/09/23 01:32:07;;;;;;;9.27;7.72;;;3.90;99.90;;;;;;5052596;28;20025;-52
2022/09/23 01:35:11;;;;;;;14.15;8.68;;;3.80;99.90;;;;;;5053769;28;20368;-51
2022/09/23 01:37:51;;;;;;;12.82;8.63;;;3.80;99.90;;;;;;5070582;28;20037;-54
2022/09/23 01:40:26;;;;;;;9.63;8.63;;;3.80;99.90;;;;;;5071473;28;20112;-51
2022/09/23 01:43:19;;;;;;;12.77;8.63;;;3.70;99.90;;;;;;5072391;28;20025;-50
2022/09/23 01:45:55;;;;;;;13.38;7.88;;;3.70;99.90;;;;;;5072365;28;20030;-49
2022/09/23 01:48:27;;;;;;;10.73;8.50;;;3.70;99.90;;;;;;5072599;28;20543;-51
2022/09/23 01:51:09;;;;;;;8.88;8.00;;;3.70;99.90;;;;;;5072461;28;20115;-51
2022/09/23 01:53:58;;;;;;;8.73;7.85;;;3.60;99.90;;;;;;5056488;28;20082;-53
2022/09/23 01:56:36;;;;;;;8.13;7.32;;;3.60;99.90;;;;;;5070678;28;20458;-52
2022/09/23 01:59:17;;;;;;;11.07;9.65;;;3.60;99.90;;;;;;5071960;28;20025;-50
2022/09/23 02:01:49;;;;;;;12.15;8.65;;;3.50;99.90;;;;;;5072086;28;20028;-50
2022/09/23 02:04:41;;;;;;;8.85;7.95;;;3.60;99.90;;;;;;5072426;28;20035;-51
2022/09/23 02:07:47;;;;;;;9.75;7.20;;;3.50;99.90;;;;;;5072054;28;20040;-50
2022/09/23 02:10:27;;;;;;;11.23;8.98;;;3.40;99.90;;;;;;5058399;28;20032;-53
2022/09/23 02:13:01;;;;;;;9.32;8.43;;;3.40;99.90;;;;;;5051871;28;20025;-49
2022/09/23 02:15:36;;;;;;;9.35;8.20;;;3.30;99.90;;;;;;5051215;28;20066;-51
2022/09/23 02:18:13;;;;;;;11.38;8.10;;;3.20;99.90;;;;;;5051000;28;20036;-50
2022/09/23 02:20:39;;;;;;;13.27;8.32;;;3.20;99.90;;;;;;5051074;28;20094;-51
2022/09/23 02:23:11;;;;;;;9.95;8.65;;;3.20;99.90;;;;;;5049876;28;20035;-52
2022/09/23 02:25:55;;;;;;;11.40;8.73;;;3.10;99.90;;;;;;5064942;28;20036;-53
2022/09/23 02:28:40;;;;;;;8.32;7.53;;;3.10;99.90;;;;;;5070531;28;20035;-52
2022/09/23 02:31:28;;;;;;;10.77;8.68;;;3.10;99.90;;;;;;5071146;28;20420;-51
2022/09/23 02:34:00;;;;;;;8.13;7.43;;;3.10;99.90;;;;;;5071196;28;20420;-54
2022/09/23 02:36:35;;;;;;;10.93;9.50;;;3.10;99.90;;;;;;5071600;28;20376;-54
2022/09/23 02:39:06;;;;;;;12.07;9.02;;;3.10;99.90;;;;;;5071451;28;20099;-50
2022/09/23 02:42:08;;;;;;;13.90;8.65;;;3.00;99.90;;;;;;5071601;28;20471;-53
2022/09/23 02:44:35;;;;;;;12.68;11.23;;;2.90;99.90;;;;;;5051587;28;20053;-53
2022/09/23 02:47:01;;;;;;;21.98;12.27;;;2.90;99.90;;;;;;5051618;28;20377;-53
2022/09/23 02:49:29;;;;;;;11.77;10.57;;;2.90;99.90;;;;;;5051361;28;20029;-50
2022/09/23 02:51:58;;;;;;;12.50;9.90;;;3.00;99.90;;;;;;5051255;28;20029;-52
2022/09/23 02:54:27;;;;;;;12.45;7.93;;;2.90;99.90;;;;;;5051481;28;20021;-51
2022/09/23 02:56:54;;;;;;;11.27;8.95;;;2.90;99.90;;;;;;5051270;28;20380;-52
2022/09/23 02:59:21;;;;;;;9.63;8.63;;;2.90;99.90;;;;;;5056677;28;20146;-52
2022/09/23 03:02:22;;;;;;;10.80;9.70;;;2.90;99.90;;;;;;5071397;28;20036;-51
2022/09/23 03:05:08;;;;;;;28.17;10.07;;;2.90;99.90;;;;;;5071281;28;20427;-52
2022/09/23 03:07:44;;;;;;;12.77;9.25;;;3.00;99.90;;;;;;5069851;28;20040;-50
2022/09/23 03:10:33;;;;;;;11.80;9.93;;;3.00;99.90;;;;;;5070082;28;20024;-50
2022/09/23 03:13:17;;;;;;;17.52;9.70;;;2.90;99.90;;;;;;5070837;28;20036;-50
2022/09/23 03:16:22;;;;;;;11.05;8.98;;;2.90;99.90;;;;;;5056242;28;20025;-50
2022/09/23 03:19:20;;;;;;;10.23;9.23;;;2.80;99.90;;;;;;5055359;28;20132;-51
2022/09/23 03:21:59;;;;;;;15.07;9.38;;;2.80;99.90;;;;;;5051040;28;20032;-50
2022/09/23 03:24:30;;;;;;;17.83;9.52;;;2.70;99.90;;;;;;5051128;28;20025;-49
2022/09/23 03:26:59;;;;;;;19.02;10.10;;;2.60;99.90;;;;;;5050937;28;20074;-52
2022/09/23 03:29:27;;;;;;;63.88;12.50;;;2.60;99.90;;;;;;5051008;28;20029;-51
2022/09/23 03:31:54;;;;;;;36.60;11.10;;;2.80;99.90;;;;;;5053577;28;20036;-52
2022/09/23 03:34:28;;;;;;;66.10;11.82;;;2.80;99.90;;;;;;5071078;28;20033;-50
2022/09/23 03:37:16;;;;;;;20.77;12.35;;;2.80;99.90;;;;;;5070946;28;20024;-49
2022/09/23 03:40:09;;;;;;;22.40;11.55;;;2.80;99.90;;;;;;5069788;28;20472;-51
2022/09/23 03:42:37;;;;;;;17.35;8.77;;;2.80;99.90;;;;;;5069638;28;20041;-53
2022/09/23 03:45:08;;;;;;;12.90;10.05;;;2.70;99.90;;;;;;5072938;28;20132;-51
2022/09/23 03:47:34;;;;;;;10.85;9.77;;;2.70;99.90;;;;;;5063997;28;20048;-51
2022/09/23 03:50:00;;;;;;;11.73;10.52;;;2.70;99.90;;;;;;5054575;28;20515;-54
2022/09/23 03:52:26;;;;;;;13.15;11.63;;;2.70;99.90;;;;;;5054508;28;20025;-50
2022/09/23 03:54:52;;;;;;;11.05;9.57;;;2.60;99.90;;;;;;5054621;28;20056;-49
2022/09/23 03:57:20;;;;;;;11.73;10.40;;;2.70;99.90;;;;;;5053408;28;20064;-50
2022/09/23 03:59:47;;;;;;;20.40;12.02;;;2.70;99.90;;;;;;5054506;28;20039;-51
2022/09/23 04:02:15;;;;;;;33.50;12.30;;;2.70;99.90;;;;;;5053931;28;20575;-51
2022/09/23 04:04:41;;;;;;;33.85;11.93;;;2.80;99.90;;;;;;5070028;28;20081;-50
2022/09/23 04:07:07;;;;;;;27.02;13.25;;;2.80;99.90;;;;;;5073595;28;20527;-51
2022/09/23 04:09:34;;;;;;;17.27;11.45;;;2.90;99.90;;;;;;5073134;28;20032;-50
2022/09/23 04:11:59;;;;;;;76.53;12.02;;;2.90;99.90;;;;;;5074168;28;20380;-51
2022/09/23 04:14:25;;;;;;;166.77;15.30;;;2.90;99.90;;;;;;5074438;28;20035;-50
2022/09/23 04:16:51;;;;;;;86.53;11.82;;;2.90;99.90;;;;;;5074089;28;20478;-53
2022/09/23 04:19:16;;;;;;;176.15;14.90;;;2.90;99.90;;;;;;5070819;28;20104;-53
2022/09/23 04:21:43;;;;;;;143.55;14.85;;;2.90;99.90;;;;;;5053989;28;20082;-51
2022/09/23 04:24:10;;;;;;;140.98;15.80;;;2.80;99.90;;;;;;5054108;28;20021;-51
2022/09/23 04:26:37;;;;;;;175.30;17.92;;;2.80;99.90;;;;;;5054007;28;20056;-51
2022/09/23 04:29:03;;;;;;;236.75;19.25;;;2.80;99.90;;;;;;5054002;28;20025;-55
2022/09/23 04:31:30;;;;;;;127.82;16.67;;;2.90;99.90;;;;;;5053825;28;20033;-50
2022/09/23 04:33:56;;;;;;;169.80;17.55;;;3.00;99.90;;;;;;5056034;28;20025;-51
2022/09/23 04:36:22;;;;;;;171.27;16.88;;;3.00;99.90;;;;;;5073463;28;20108;-51
2022/09/23 04:38:48;;;;;;;93.15;15.32;;;3.10;99.90;;;;;;5073012;28;20441;-53
2022/09/23 04:41:15;;;;;;;133.68;16.65;;;3.10;99.90;;;;;;5073310;28;20089;-54
2022/09/23 04:43:41;;;;;;;159.90;15.73;;;3.20;99.90;;;;;;5072227;28;20054;-52
2022/09/23 04:46:09;;;;;;;172.43;17.05;;;3.20;99.90;;;;;;5073463;28;20029;-51
2022/09/23 04:48:36;;;;;;;141.93;16.30;;;3.10;99.90;;;;;;5072558;28;20036;-52
2022/09/23 04:51:07;;;;;;;155.45;15.27;;;3.20;99.90;;;;;;5071106;28;20056;-52
2022/09/23 04:53:35;;;;;;;144.50;14.90;;;3.20;99.90;;;;;;5072825;28;20464;-52
2022/09/23 04:56:15;;;;;;;171.23;15.80;;;3.20;99.90;;;;;;5073072;28;20020;-52
2022/09/23 04:58:42;;;;;;;173.80;17.55;;;3.10;99.90;;;;;;5072846;28;20107;-53
2022/09/23 05:01:16;;;;;;;237.43;18.83;;;3.10;99.90;;;;;;5072499;28;20012;-52
2022/09/23 05:03:43;;;;;;;153.70;16.30;;;3.10;99.90;;;;;;5072599;28;20131;-52
2022/09/23 05:06:12;;;;;;;170.32;15.73;;;3.10;99.90;;;;;;5059633;28;20025;-51
2022/09/23 05:08:45;;;;;;;146.82;13.77;;;3.10;99.90;;;;;;5052622;28;20704;-52
2022/09/23 05:11:11;;;;;;;109.78;14.15;;;3.20;99.90;;;;;;5051625;28;20071;-51
2022/09/23 05:13:36;;;;;;;137.70;14.93;;;3.20;99.90;;;;;;5052729;28;20480;-50
2022/09/23 05:16:06;;;;;;;257.15;17.35;;;3.30;99.90;;;;;;5053126;28;20029;-51
2022/09/23 05:18:36;;;;;;;231.90;18.35;;;3.20;99.90;;;;;;5053103;28;20100;-50
2022/09/23 05:21:02;;;;;;;260.95;23.45;;;3.20;99.90;;;;;;5066541;28;20498;-51
2022/09/23 05:23:29;;;;;;;243.15;22.20;;;3.20;99.90;;;;;;5072789;28;20541;-50
2022/09/23 05:26:03;;;;;;;177.43;16.70;;;3.20;99.90;;;;;;5072551;28;20058;-52
2022/09/23 05:28:31;;;;;;;154.65;16.23;;;3.20;99.90;;;;;;5068365;28;20104;-51
2022/09/23 05:31:11;;;;;;;127.97;15.15;;;3.30;99.90;;;;;;5060188;28;20149;-53
2022/09/23 05:33:36;;;;;;;52.67;12.13;;;3.20;99.90;;;;;;5072397;28;20025;-51
2022/09/23 05:36:03;;;;;;;125.88;13.57;;;3.30;99.90;;;;;;5069127;28;20031;-50
2022/09/23 05:38:30;;;;;;;70.22;12.32;;;3.40;99.90;;;;;;5072434;28;20025;-52
2022/09/23 05:41:02;;;;;;;42.35;10.65;;;3.40;99.90;;;;;;5072528;28;20520;-52
2022/09/23 05:43:28;;;;;;;61.88;13.60;;;3.50;99.90;;;;;;5071698;28;20033;-52
2022/09/23 05:46:04;;;;;;;26.00;13.27;;;3.50;99.90;;;;;;5071728;28;20067;-50
2022/09/23 05:48:31;;;;;;;22.70;10.13;;;3.70;99.90;;;;;;5068101;28;20021;-50
2022/09/23 05:50:57;;;;;;;33.90;10.27;;;3.80;99.90;;;;;;5051811;28;20052;-49
2022/09/23 05:53:23;;;;;;;31.70;9.07;;;3.80;99.90;;;;;;5051952;28;20029;-53
2022/09/23 05:55:48;;;;;;;29.58;6.35;;;3.80;99.90;;;;;;5051826;28;20094;-50
2022/09/23 05:58:14;;;;;;;14.27;8.18;;;3.70;99.90;;;;;;5051863;28;20419;-52
2022/09/23 06:00:41;;;;;;;28.58;8.75;;;3.70;99.90;;;;;;5050664;28;20025;-49
2022/09/23 06:03:14;;;;;;;33.08;8.85;;;3.80;99.90;;;;;;5052926;28;20123;-50
2022/09/23 06:05:39;;;;;;;43.70;8.82;;;3.80;99.90;;;;;;5068851;28;20414;-50
2022/09/23 06:08:06;;;;;;;31.35;9.45;;;3.70;99.90;;;;;;5069474;28;20048;-50
2022/09/23 06:10:40;;;;;;;30.25;9.10;;;3.80;99.90;;;;;;5070887;28;20545;-50
2022/09/23 06:13:07;;;;;;;28.17;9.95;;;3.80;99.90;;;;;;5070060;28;20028;-50
2022/09/23 06:15:33;;;;;;;8.00;7.20;;;3.90;99.90;;;;;;5063242;28;20025;-51
2022/09/23 06:17:59;;;;;;;19.83;7.55;;;4.20;99.90;;;;;;5050417;28;20028;-50
2022/09/23 06:20:25;;;;;;;8.30;7.50;;;4.10;99.90;;;;;;5050719;28;20020;-50
2022/09/23 06:22:51;;;;;;;34.78;8.60;;;4.10;99.90;;;;;;5050313;28;20496;-50
2022/09/23 06:25:18;;;;;;;11.73;7.72;;;4.30;99.90;;;;;;5051814;28;20035;-50
2022/09/23 06:27:53;;;;;;;7.65;6.95;;;4.40;99.90;;;;;;5050313;28;20025;-49
2022/09/23 06:30:19;;;;;;;18.88;8.32;;;4.50;99.90;;;;;;5050191;28;20029;-51
2022/09/23 06:32:50;;;;;;;16.77;7.95;;;4.60;99.90;;;;;;5049416;28;20045;-49
2022/09/23 06:35:17;;;;;;;23.15;7.47;;;4.70;99.90;;;;;;5050526;28;20021;-49
2022/09/23 06:37:43;;;;;;;9.07;6.50;;;4.80;99.90;;;;;;5050477;28;20009;-50
2022/09/23 06:40:09;;;;;;;83.18;9.93;;;4.80;99.90;;;;;;5048921;28;20122;-51
2022/09/23 06:42:35;;;;;;;14.88;7.18;;;4.90;99.90;;;;;;5050611;28;20031;-51
2022/09/23 06:45:01;;;;;;;20.75;8.52;;;4.80;99.90;;;;;;5050160;28;20027;-50
2022/09/23 06:47:27;;;;;;;48.85;9.18;;;4.90;99.90;;;;;;5050409;28;20381;-50
2022/09/23 06:49:53;;;;;;;24.27;8.88;;;4.90;99.90;;;;;;5050322;28;20029;-51
2022/09/23 06:52:20;;;;;;;24.35;8.07;;;5.00;99.90;;;;;;5050357;28;20121;-50
2022/09/23 06:54:46;;;;;;;16.33;8.25;;;5.20;99.90;;;;;;5049801;28;20048;-52
2022/09/23 06:57:13;;;;;;;102.75;10.63;;;5.30;99.90;;;;;;5050354;28;20372;-50
2022/09/23 06:59:40;;;;;;;61.15;8.95;;;5.40;99.90;;;;;;5049925;28;20352;-51
2022/09/23 07:02:08;;;;;;;140.48;10.82;;;5.40;99.90;;;;;;5049821;28;20059;-50
2022/09/23 07:04:33;;;;;;;7.60;6.90;;;5.60;99.90;;;;;;5048893;28;20025;-50
2022/09/23 07:07:02;;;;;;;13.30;6.88;;;5.90;99.90;;;;;;5049666;28;20515;-50
2022/09/23 07:09:28;;;;;;;40.35;8.52;;;6.20;99.90;;;;;;5053933;28;20104;-50
2022/09/23 07:11:54;;;;;;;46.75;8.73;;;6.50;99.90;;;;;;5049837;28;20124;-52
2022/09/23 07:14:19;;;;;;;23.05;7.85;;;6.50;99.90;;;;;;5049840;28;20024;-50
2022/09/23 07:16:48;;;;;;;40.28;9.65;;;6.60;99.90;;;;;;5049818;28;20048;-51
2022/09/23 07:19:14;;;;;;;74.22;10.93;;;6.70;99.90;;;;;;5049191;28;20025;-51
2022/09/23 07:21:40;;;;;;;52.25;16.38;;;6.80;99.90;;;;;;5054058;28;20013;-50
2022/09/23 07:24:06;;;;;;;37.25;12.25;;;6.90;99.90;;;;;;5053942;28;20167;-51
2022/09/23 07:26:32;;;;;;;12.43;8.32;;;7.10;99.90;;;;;;5052832;28;20013;-51
2022/09/23 07:29:06;;;;;;;8.95;7.97;;;7.40;99.90;;;;;;5053869;28;20448;-49
2022/09/23 07:31:37;;;;;;;17.23;7.57;;;7.70;99.90;;;;;;5053620;28;20131;-50
2022/09/23 07:34:03;;;;;;;14.60;8.32;;;7.90;99.90;;;;;;5053707;28;20483;-51
2022/09/23 07:36:32;;;;;;;8.13;6.80;;;8.00;99.90;;;;;;5053924;28;20048;-50
2022/09/23 07:39:02;;;;;;;8.68;7.80;;;8.20;99.90;;;;;;5057861;28;20025;-51
2022/09/23 07:41:30;;;;;;;10.88;8.23;;;8.40;99.90;;;;;;5072468;28;20028;-51
2022/09/23 07:43:57;;;;;;;10.85;9.57;;;8.50;99.90;;;;;;5072053;28;21497;-49
2022/09/23 07:46:26;;;;;;;14.35;10.68;;;8.80;99.90;;;;;;5072360;28;20059;-50
2022/09/23 07:48:52;;;;;;;15.57;12.25;;;8.70;99.90;;;;;;5071981;28;20024;-53
2022/09/23 07:51:21;;;;;;;16.90;13.32;;;8.80;99.90;;;;;;5053483;28;20028;-50
2022/09/23 07:53:48;;;;;;;13.98;10.93;;;8.90;99.90;;;;;;5053370;28;20125;-52
2022/09/23 07:56:15;;;;;;;12.75;10.45;;;9.00;99.90;;;;;;5053300;28;20060;-50
2022/09/23 07:58:40;;;;;;;13.25;10.80;;;9.10;99.90;;;;;;5053288;28;20477;-52
2022/09/23 08:01:09;;;;;;;12.82;11.48;;;9.20;99.90;;;;;;5072021;28;20133;-50
2022/09/23 08:03:35;;;;;;;16.02;11.68;;;9.40;99.90;;;;;;5068973;28;20029;-52
2022/09/23 08:06:11;;;;;;;14.75;12.55;;;9.40;99.90;;;;;;5053297;28;20052;-50
2022/09/23 08:08:39;;;;;;;14.93;11.65;;;9.50;99.90;;;;;;5058044;28;20036;-50
2022/09/23 08:11:08;;;;;;;20.45;12.30;;;9.60;99.90;;;;;;5071340;28;20081;-51
2022/09/23 08:13:34;;;;;;;14.48;11.85;;;9.70;99.90;;;;;;5071873;28;20028;-52
2022/09/23 08:16:00;;;;;;;12.88;9.80;;;9.90;99.90;;;;;;5056111;28;20013;-51
2022/09/23 08:18:26;;;;;;;15.55;11.13;;;9.90;99.90;;;;;;5053194;28;20158;-51
2022/09/23 08:20:51;;;;;;;13.27;10.85;;;9.90;99.90;;;;;;5052591;28;20071;-50
2022/09/23 08:23:19;;;;;;;16.05;11.10;;;9.80;99.90;;;;;;5052834;28;20013;-51
2022/09/23 08:26:11;;;;;;;13.98;11.02;;;9.80;99.90;;;;;;5062005;28;20028;-50
2022/09/23 08:28:36;;;;;;;14.13;10.05;;;9.90;99.90;;;;;;5071973;28;20111;-51
2022/09/23 08:31:02;;;;;;;11.75;8.70;;;10.10;99.90;;;;;;5071969;28;20155;-50
2022/09/23 08:33:28;;;;;;;10.27;7.70;;;10.10;99.90;;;;;;5072434;28;20107;-53
2022/09/23 08:35:59;;;;;;;9.63;6.13;;;10.30;99.90;;;;;;5072468;28;20404;-51
2022/09/23 08:38:26;;;;;;;8.20;6.45;;;10.50;99.90;;;;;;5062735;28;20124;-53
2022/09/23 08:41:03;;;;;;;5.35;4.82;;;10.70;99.90;;;;;;5050794;28;20044;-51
2022/09/23 08:43:31;;;;;;;14.10;12.75;;;10.80;99.90;;;;;;5051090;28;20101;-52
2022/09/23 08:46:02;;;;;;;13.48;8.52;;;10.80;99.90;;;;;;5051993;28;20028;-51
2022/09/23 08:48:33;;;;;;;11.00;7.35;;;11.20;99.90;;;;;;5052687;28;20027;-51
2022/09/23 08:51:06;;;;;;;12.57;7.85;;;11.30;99.90;;;;;;5051888;28;20107;-49
2022/09/23 08:53:34;;;;;;;6.93;5.00;;;11.30;99.90;;;;;;5064128;28;20029;-51
2022/09/23 08:56:11;;;;;;;12.02;7.10;;;11.30;99.90;;;;;;5072670;28;20021;-53
2022/09/23 08:59:13;;;;;;;7.95;5.70;;;11.30;99.90;;;;;;5072777;28;20024;-51
2022/09/23 09:02:04;;;;;;;7.10;6.32;;;11.50;99.90;;;;;;5073299;28;20013;-52
2022/09/23 09:04:36;;;;;;;6.70;6.00;;;11.80;99.90;;;;;;5073213;28;20160;-53
2022/09/23 09:07:08;;;;;;;6.82;5.57;;;12.00;99.90;;;;;;5072379;28;20047;-52
2022/09/23 09:09:49;;;;;;;11.68;6.78;;;12.20;99.90;;;;;;5052785;28;20360;-51
2022/09/23 09:12:19;;;;;;;4.32;3.92;;;12.10;99.90;;;;;;5052306;28;20025;-52
2022/09/23 09:14:45;;;;;;;5.07;4.13;;;12.10;99.90;;;;;;5052695;28;20094;-50
2022/09/23 09:17:23;;;;;;;6.07;3.75;;;12.30;99.90;;;;;;5057155;28;20029;-51
2022/09/23 09:19:54;;;;;;;4.82;3.40;;;12.40;99.90;;;;;;5066936;28;20024;-51
2022/09/23 09:22:29;;;;;;;7.43;3.28;;;12.50;99.90;;;;;;5064176;28;20104;-52
2022/09/23 09:25:01;;;;;;;5.80;4.63;;;12.60;99.90;;;;;;5052596;28;20039;-51
2022/09/23 09:27:27;;;;;;;4.93;4.43;;;12.80;99.90;;;;;;5069888;28;20048;-50
2022/09/23 09:29:54;;;;;;;3.47;3.17;;;13.00;99.90;;;;;;5072659;28;20055;-53
2022/09/23 09:32:46;;;;;;;2.58;2.38;;;13.30;99.90;;;;;;5071932;28;20411;-52
2022/09/23 09:35:24;;;;;;;3.22;2.92;;;13.40;98.70;;;;;;5071991;28;20020;-52
2022/09/23 09:37:50;;;;;;;3.00;2.60;;;13.60;99.80;;;;;;5069632;28;20048;-54
2022/09/23 09:40:16;;;;;;;3.92;2.80;;;13.70;99.90;;;;;;5067871;28;20027;-51
2022/09/23 09:42:46;;;;;;;3.00;2.63;;;13.50;99.60;;;;;;5071535;28;20028;-52
2022/09/23 09:45:52;;;;;;;3.40;3.10;;;13.70;98.10;;;;;;5072621;28;20021;-51
2022/09/23 09:48:38;;;;;;;2.30;2.10;;;13.80;98.80;;;;;;5072447;28;20024;-53
2022/09/23 09:51:17;;;;;;;2.15;1.95;;;13.90;97.20;;;;;;5072463;28;20025;-53
2022/09/23 09:53:43;;;;;;;3.15;2.65;;;14.20;96.20;;;;;;5071785;28;20386;-51
2022/09/23 09:56:12;;;;;;;7.63;2.00;;;14.20;96.20;;;;;;5058697;28;20020;-52
2022/09/23 09:58:46;;;;;;;2.53;2.33;;;14.60;95.90;;;;;;5072135;28;20027;-53
2022/09/23 10:01:38;;;;;;;3.40;2.47;;;15.00;95.20;;;;;;5062915;28;20567;-52
2022/09/23 10:04:18;;;;;;;2.55;2.20;;;14.70;93.70;;;;;;5041019;28;20048;-53
2022/09/23 10:07:14;;;;;;;3.30;3.00;;;14.90;94.30;;;;;;5038982;28;20031;-53
2022/09/23 10:09:48;;;;;;;3.10;2.50;;;15.00;96.00;;;;;;5050612;28;20116;-55
2022/09/23 10:12:17;;;;;;;3.33;2.42;;;15.10;94.60;;;;;;5060297;28;20056;-52
2022/09/23 10:14:43;;;;;;;5.32;2.10;;;15.40;95.90;;;;;;5049100;28;20568;-51
2022/09/23 10:17:41;;;;;;;2.50;2.30;;;15.70;94.20;;;;;;5045774;28;20029;-52
2022/09/23 10:20:08;;;;;;;7.25;2.80;;;15.70;94.50;;;;;;5038140;28;20045;-52
2022/09/23 10:22:41;;;;;;;4.93;2.83;;;16.00;96.00;;;;;;5041824;28;22609;-55
2022/09/23 10:25:23;;;;;;;6.15;2.85;;;16.10;95.60;;;;;;5042825;28;20037;-51
2022/09/23 10:27:49;;;;;;;2.60;2.40;;;15.80;93.30;;;;;;5060156;28;20036;-52
2022/09/23 10:30:26;;;;;;;3.15;2.85;;;16.00;93.90;;;;;;5048602;28;20079;-51
2022/09/23 10:32:55;;;;;;;3.25;2.95;;;16.00;95.40;;;;;;5059302;28;20036;-51
2022/09/23 10:35:27;;;;;;;4.80;3.47;;;16.00;94.00;;;;;;5059746;28;20035;-52
2022/09/23 10:37:54;;;;;;;3.35;3.05;;;16.40;94.90;;;;;;5060259;28;20035;-55
2022/09/23 10:46:37;;;;;;;3.85;2.65;;;18.70;89.40;;;;;;5060888;28;20070;-53
2022/09/23 10:49:11;;;;;;;5.15;2.38;;;20.10;85.80;;;;;;5060073;28;20047;-51
2022/09/23 10:51:43;;;;;;;5.85;2.75;;;21.10;80.70;;;;;;5041771;28;20806;-54
2022/09/23 10:54:45;;;;;;;3.47;2.10;;;22.10;77.40;;;;;;5041308;28;22113;-52
2022/09/23 10:57:55;;;;;;;3.75;1.45;;;23.20;70.20;;;;;;5038929;28;20031;-55
2022/09/23 11:00:41;;;;;;;7.03;2.03;;;23.20;59.40;;;;;;5022338;28;20590;-54
2022/09/23 11:03:19;;;;;;;1.52;1.42;;;24.20;60.30;;;;;;5039800;28;20052;-57
2022/09/23 11:05:44;;;;;;;3.28;1.77;;;24.10;59.30;;;;;;5058120;28;20027;-55
2022/09/23 11:08:58;;;;;;;2.80;1.33;;;24.60;57.90;;;;;;5053836;28;20120;-57
2022/09/23 11:11:26;;;;;;;1.43;1.33;;;24.70;53.60;;;;;;5037042;28;20041;-57
2022/09/23 11:14:16;;;;;;;4.50;1.15;;;24.30;53.10;;;;;;5039442;28;20036;-58
2022/09/23 11:17:00;;;;;;;2.13;1.23;;;24.80;53.20;;;;;;5039068;28;20048;-57
2022/09/23 11:19:40;;;;;;;2.08;1.73;;;24.40;52.80;;;;;;5040876;28;20037;-58
2022/09/23 11:22:36;;;;;;;1.58;1.27;;;24.00;53.70;;;;;;5040328;28;20466;-56
2022/09/23 11:25:01;;;;;;;1.23;1.10;;;24.60;53.90;;;;;;5038635;28;20029;-58
2022/09/23 11:27:33;;;;;;;1.20;1.10;;;26.00;50.20;;;;;;5040044;28;20350;-57
2022/09/23 11:30:16;;;;;;;2.55;1.38;;;25.20;49.10;;;;;;5041748;28;20032;-56
2022/09/23 11:33:06;;;;;;;1.48;1.20;;;25.30;50.10;;;;;;5070978;28;20032;-57
2022/09/23 11:35:41;;;;;;;3.95;1.17;;;25.20;51.40;;;;;;5070928;28;20032;-56
2022/09/23 11:38:10;;;;;;;1.65;1.50;;;24.80;51.20;;;;;;5070878;28;20028;-53
2022/09/23 11:40:39;;;;;;;4.30;1.33;;;25.30;49.90;;;;;;5070701;28;20098;-55
2022/09/23 11:43:38;;;;;;;2.33;1.58;;;25.50;50.20;;;;;;5070913;28;20078;-55
2022/09/23 11:46:28;;;;;;;2.45;1.27;;;25.30;49.20;;;;;;5070928;28;20123;-55
2022/09/23 11:49:28;;;;;;;1.42;1.13;;;25.50;47.80;;;;;;5070911;28;20032;-56
2022/09/23 11:52:03;;;;;;;1.05;1.02;;;26.50;47.80;;;;;;5070621;28;20694;-56
2022/09/23 11:54:53;;;;;;;1.10;1.00;;;26.80;47.50;;;;;;5070918;28;20127;-57
2022/09/23 11:57:44;;;;;;;1.42;1.20;;;26.20;47.80;;;;;;5069662;28;20120;-56
2022/09/23 12:00:33;;;;;;;1.23;1.13;;;26.40;45.60;;;;;;5070868;28;20480;-56
2022/09/23 12:03:12;;;;;;;2.20;1.70;;;27.20;45.40;;;;;;5069713;28;20028;-56
2022/09/23 12:05:57;;;;;;;3.75;1.42;;;27.20;44.10;;;;;;5069709;28;20411;-57
2022/09/23 12:08:36;;;;;;;3.53;1.52;;;26.60;45.80;;;;;;5055296;28;20051;-54
2022/09/23 12:11:33;;;;;;;3.90;1.70;;;26.10;47.30;;;;;;5052751;28;20052;-57
2022/09/23 12:14:14;;;;;;;1.88;1.20;;;26.60;47.60;;;;;;5052755;28;20028;-56
2022/09/23 12:17:01;;;;;;;1.42;1.30;;;26.90;47.70;;;;;;5051385;28;20021;-56
2022/09/23 12:19:43;;;;;;;1.52;1.23;;;27.40;45.70;;;;;;5052905;28;20100;-56
2022/09/23 12:22:51;;;;;;;7.70;1.23;;;26.80;42.80;;;;;;5051625;28;20025;-56
2022/09/23 12:25:38;;;;;;;3.63;1.40;;;27.00;44.90;;;;;;5050958;28;20043;-57
2022/09/23 12:28:13;;;;;;;2.88;0.95;;;27.00;43.40;;;;;;5052709;28;20075;-55
2022/09/23 12:30:39;;;;;;;1.65;1.45;;;27.40;42.90;;;;;;5052281;28;20071;-56
2022/09/23 12:33:23;;;;;;;2.30;1.55;;;27.90;43.60;;;;;;5052525;28;20036;-57
2022/09/23 12:35:52;;;;;;;1.65;1.08;;;27.90;42.70;;;;;;5051072;28;20043;-55
2022/09/23 12:38:38;;;;;;;4.35;1.48;;;27.70;43.00;;;;;;5051213;28;20044;-54
2022/09/23 12:41:34;;;;;;;3.08;1.50;;;27.80;44.00;;;;;;5052154;28;20040;-57
2022/09/23 12:44:22;;;;;;;2.60;1.65;;;28.80;42.00;;;;;;5052177;28;20021;-55
2022/09/23 12:47:13;;;;;;;3.38;2.38;;;28.00;42.60;;;;;;5052108;28;20488;-56
2022/09/23 12:49:40;;;;;;;8.15;1.55;;;27.70;44.10;;;;;;5051993;28;20499;-55
2022/09/23 12:52:15;;;;;;;3.35;2.53;;;28.10;45.10;;;;;;5052257;28;20381;-56
2022/09/23 12:54:55;;;;;;;8.13;3.95;;;27.80;43.50;;;;;;5051985;28;20020;-56
2022/09/23 12:57:32;;;;;;;10.40;3.47;;;27.50;44.50;;;;;;5052291;28;20059;-54
2022/09/23 13:00:11;;;;;;;2.50;1.85;;;28.30;42.30;;;;;;5050868;28;20074;-54
2022/09/23 13:08:37;;;;;;;3.53;1.83;;;27.70;43.90;;;;;;5057837;28;20086;-55
2022/09/23 13:11:12;;;;;;;5.85;1.45;;;26.70;42.70;;;;;;5071838;28;20074;-55
2022/09/23 13:13:41;;;;;;;6.43;2.83;;;26.90;43.00;;;;;;5069960;28;20028;-57
2022/09/23 13:16:32;;;;;;;4.45;2.10;;;27.00;44.30;;;;;;5055917;28;20035;-57
2022/09/23 13:18:59;;;;;;;4.95;3.33;;;27.00;44.00;;;;;;5052834;28;20025;-54
2022/09/23 13:21:46;;;;;;;4.00;2.13;;;27.00;45.10;;;;;;5067706;28;20455;-56
2022/09/23 13:24:30;;;;;;;1.75;1.65;;;27.60;43.60;;;;;;5058092;28;20130;-57
2022/09/23 13:26:59;;;;;;;2.67;1.83;;;28.20;42.70;;;;;;5053981;28;20111;-56
2022/09/23 13:29:52;;;;;;;4.05;2.63;;;28.20;43.90;;;;;;5070055;28;20166;-56
2022/09/23 13:32:20;;;;;;;3.60;2.85;;;28.40;41.90;;;;;;5064245;28;20037;-56